Time;durP1;ratioP1;P1;durP2;ratioP2;P2;SDS_P1;SDS_P2;PMS_P1;PMS_P2;Temp;Humidity;BMP_temperature;BMP_pressure;BME280_temperature;BME280_humidity;BME280_pressure;Samples;Min_cycle;Max_cycle;Signal;HPM_P1;HPM_P2
2022/07/27 00:00:30;;;;;;;;;;;15.80;99.90;;;;;;4959445;28;19906;-62
2022/07/27 00:02:56;;;;;;;;;;;15.70;99.90;;;;;;4955082;28;19963;-61
2022/07/27 00:05:21;;;;;;;;;;;15.50;99.90;;;;;;4957112;28;19917;-62
2022/07/27 00:07:47;;;;;;;;;;;15.40;99.90;;;;;;4956148;28;19917;-62
2022/07/27 00:10:14;;;;;;;;;;;15.30;99.90;;;;;;4947122;28;19926;-62
2022/07/27 00:12:39;;;;;;;;;;;15.20;99.90;;;;;;4960375;28;19914;-62
2022/07/27 00:15:05;;;;;;;;;;;15.10;99.90;;;;;;4959416;28;19929;-62
2022/07/27 00:17:31;;;;;;;;;;;15.10;99.90;;;;;;4950620;28;19910;-62
2022/07/27 00:19:57;;;;;;;;;;;15.00;99.90;;;;;;4948399;28;19922;-62
2022/07/27 00:22:22;;;;;;;;;;;14.90;99.90;;;;;;4967996;28;19953;-62
2022/07/27 00:24:48;;;;;;;;;;;14.80;99.90;;;;;;4963891;28;19929;-62
2022/07/27 00:27:14;;;;;;;;;;;14.70;99.90;;;;;;4965506;28;19914;-62
2022/07/27 00:29:39;;;;;;;;;;;14.70;99.90;;;;;;4962241;28;19906;-62
2022/07/27 00:32:05;;;;;;;;;;;14.60;99.90;;;;;;4963615;28;19920;-62
2022/07/27 00:34:31;;;;;;;;;;;14.60;99.90;;;;;;4945578;28;19914;-62
2022/07/27 00:36:56;;;;;;;;;;;14.50;99.90;;;;;;4964770;28;19997;-62
2022/07/27 00:39:22;;;;;;;;;;;14.40;99.90;;;;;;4947769;28;20437;-62
2022/07/27 00:41:47;;;;;;;;;;;14.40;99.90;;;;;;4958091;28;19910;-62
2022/07/27 00:44:13;;;;;;;;;;;14.40;99.90;;;;;;4962545;28;19910;-62
2022/07/27 00:46:38;;;;;;;;;;;14.30;99.90;;;;;;4963037;28;19920;-61
2022/07/27 00:49:04;;;;;;;;;;;14.40;99.90;;;;;;4969017;28;19921;-62
2022/07/27 00:51:31;;;;;;;;;;;14.40;99.90;;;;;;4960197;28;20253;-62
2022/07/27 00:53:57;;;;;;;;;;;14.40;99.90;;;;;;4965632;28;19911;-62
2022/07/27 00:56:23;;;;;;;;;;;14.50;99.90;;;;;;4962425;28;20008;-62
2022/07/27 00:58:49;;;;;;;;;;;14.50;99.90;;;;;;4965811;28;20489;-62
2022/07/27 01:01:17;;;;;;;;;;;14.40;99.90;;;;;;4970442;28;19914;-62
2022/07/27 01:03:43;;;;;;;;;;;14.40;99.90;;;;;;4969762;28;19910;-62
2022/07/27 01:06:09;;;;;;;;;;;14.40;99.90;;;;;;4954621;28;20397;-62
2022/07/27 01:08:35;;;;;;;;;;;14.50;99.90;;;;;;4969678;28;19906;-62
2022/07/27 01:11:01;;;;;;;;;;;14.50;99.90;;;;;;4967098;28;19914;-61
2022/07/27 01:13:27;;;;;;;;;;;14.50;99.90;;;;;;4962068;28;19910;-62
2022/07/27 01:15:52;;;;;;;;;;;14.50;99.90;;;;;;4968472;28;19917;-62
2022/07/27 01:18:25;;;;;;;;;;;14.50;99.90;;;;;;4968898;28;19952;-62
2022/07/27 01:20:51;;;;;;;;;;;14.50;99.90;;;;;;4963480;28;20348;-62
2022/07/27 01:23:17;;;;;;;;;;;14.40;99.90;;;;;;4968008;28;19972;-62
2022/07/27 01:25:42;;;;;;;;;;;14.50;99.90;;;;;;4966795;28;19910;-62
2022/07/27 01:28:08;;;;;;;;;;;14.60;99.90;;;;;;4966834;28;20351;-62
2022/07/27 01:30:34;;;;;;;;;;;14.60;99.90;;;;;;4962073;28;19958;-62
2022/07/27 01:33:03;;;;;;;;;;;14.60;99.90;;;;;;4968561;28;19940;-61
2022/07/27 01:35:29;;;;;;;;;;;14.60;99.90;;;;;;4957399;28;19917;-62
2022/07/27 01:37:55;;;;;;;;;;;14.60;99.90;;;;;;4964506;28;19993;-62
2022/07/27 01:40:21;;;;;;;;;;;14.60;99.90;;;;;;4960957;28;19914;-63
2022/07/27 01:42:46;;;;;;;;;;;14.60;99.90;;;;;;4963222;28;19980;-62
2022/07/27 01:45:12;;;;;;;;;;;14.50;99.90;;;;;;4961660;28;19922;-63
2022/07/27 01:47:38;;;;;;;;;;;14.50;99.90;;;;;;4961373;28;19997;-62
2022/07/27 01:50:03;;;;;;;;;;;14.50;99.90;;;;;;4960289;28;19914;-62
2022/07/27 01:52:29;;;;;;;;;;;14.50;99.90;;;;;;4963345;28;19914;-62
2022/07/27 01:54:55;;;;;;;;;;;14.50;99.90;;;;;;4961858;28;19924;-62
2022/07/27 01:57:20;;;;;;;;;;;14.60;99.90;;;;;;4959676;28;19920;-62
2022/07/27 01:59:45;;;;;;;;;;;14.50;99.90;;;;;;4962296;28;19914;-62
2022/07/27 02:02:14;;;;;;;;;;;14.40;99.90;;;;;;4959310;28;20001;-62
2022/07/27 02:04:39;;;;;;;;;;;14.30;99.90;;;;;;4970037;28;19965;-62
2022/07/27 02:07:05;;;;;;;;;;;14.30;99.90;;;;;;4963837;28;19921;-62
2022/07/27 02:09:30;;;;;;;;;;;14.20;99.90;;;;;;4962404;28;19918;-62
2022/07/27 02:14:40;;;;;;;;;;;14.10;99.90;;;;;;4960641;28;19960;-62
2022/07/27 02:17:06;;;;;;;;;;;14.00;99.90;;;;;;4965711;28;19949;-62
2022/07/27 02:19:31;;;;;;;;;;;13.90;99.90;;;;;;4957946;28;19966;-62
2022/07/27 02:21:57;;;;;;;;;;;13.80;99.90;;;;;;4963184;28;19906;-62
2022/07/27 02:24:22;;;;;;;;;;;13.90;99.90;;;;;;4962434;28;19923;-62
2022/07/27 02:26:48;;;;;;;;;;;13.80;99.90;;;;;;4957585;28;19972;-62
2022/07/27 02:29:13;;;;;;;;;;;13.80;99.90;;;;;;4968195;28;19917;-62
2022/07/27 02:31:39;;;;;;;;;;;13.60;99.90;;;;;;4961164;28;19933;-62
2022/07/27 02:34:04;;;;;;;;;;;13.60;99.90;;;;;;4963162;28;19918;-62
2022/07/27 02:36:30;;;;;;;;;;;13.60;99.90;;;;;;4961420;28;19910;-62
2022/07/27 02:38:56;;;;;;;;;;;13.60;99.90;;;;;;4957828;28;19911;-62
2022/07/27 02:41:22;;;;;;;;;;;13.50;99.90;;;;;;4957192;28;19925;-61
2022/07/27 02:43:47;;;;;;;;;;;13.50;99.90;;;;;;4942716;29;20336;-62
2022/07/27 02:46:13;;;;;;;;;;;13.40;99.90;;;;;;4959017;28;20336;-62
2022/07/27 02:48:38;;;;;;;;;;;13.20;99.90;;;;;;4959844;28;19906;-62
2022/07/27 02:51:04;;;;;;;;;;;13.20;99.90;;;;;;4949706;28;19917;-62
2022/07/27 02:53:29;;;;;;;;;;;13.20;99.90;;;;;;4952059;28;20024;-62
2022/07/27 02:55:55;;;;;;;;;;;13.10;99.90;;;;;;4961200;28;20306;-62
2022/07/27 02:58:21;;;;;;;;;;;12.90;99.90;;;;;;4959884;28;20316;-62
2022/07/27 03:00:47;;;;;;;;;;;12.70;99.90;;;;;;4966920;28;19917;-62
2022/07/27 03:03:12;;;;;;;;;;;12.40;99.90;;;;;;4958711;28;20140;-62
2022/07/27 03:05:38;;;;;;;;;;;12.20;99.90;;;;;;4963628;28;19989;-62
2022/07/27 03:08:04;;;;;;;;;;;12.20;99.90;;;;;;4956391;28;20130;-62
2022/07/27 03:10:30;;;;;;;;;;;12.10;99.90;;;;;;4961705;28;19925;-62
2022/07/27 03:12:56;;;;;;;;;;;12.00;99.90;;;;;;4961686;28;19910;-62
2022/07/27 03:15:21;;;;;;;;;;;11.80;99.90;;;;;;4944681;28;19964;-62
2022/07/27 03:17:47;;;;;;;;;;;11.70;99.90;;;;;;4941011;29;19907;-62
2022/07/27 03:20:12;;;;;;;;;;;11.70;99.90;;;;;;4957392;28;19915;-62
2022/07/27 03:22:38;;;;;;;;;;;11.60;99.90;;;;;;4961279;28;20383;-62
2022/07/27 03:25:04;;;;;;;;;;;11.60;99.90;;;;;;4956918;28;20224;-62
2022/07/27 03:27:29;;;;;;;;;;;11.50;99.90;;;;;;4957611;28;19914;-62
2022/07/27 03:29:55;;;;;;;;;;;11.50;99.90;;;;;;4958434;28;20259;-62
2022/07/27 03:32:21;;;;;;;;;;;11.50;99.90;;;;;;4964399;28;20334;-62
2022/07/27 03:34:46;;;;;;;;;;;11.40;99.90;;;;;;4942430;28;19910;-62
2022/07/27 03:37:12;;;;;;;;;;;11.60;99.90;;;;;;4961664;28;20307;-62
2022/07/27 03:39:37;;;;;;;;;;;11.60;99.90;;;;;;4960129;28;19960;-62
2022/07/27 03:42:03;;;;;;;;;;;11.60;99.90;;;;;;4960084;28;19910;-62
2022/07/27 03:44:28;;;;;;;;;;;11.70;99.90;;;;;;4958463;28;20414;-62
2022/07/27 03:46:54;;;;;;;;;;;11.90;99.90;;;;;;4958523;28;20413;-62
2022/07/27 03:49:19;;;;;;;;;;;11.90;99.90;;;;;;4957788;28;19914;-62
2022/07/27 03:51:45;;;;;;;;;;;11.90;99.90;;;;;;4956052;28;20016;-62
2022/07/27 03:54:10;;;;;;;;;;;12.10;99.90;;;;;;4953752;28;19922;-62
2022/07/27 03:56:36;;;;;;;;;;;12.30;99.90;;;;;;4949339;28;20292;-62
2022/07/27 03:59:01;;;;;;;;;;;12.50;99.90;;;;;;4958391;28;19910;-62
2022/07/27 04:01:27;;;;;;;;;;;12.50;99.90;;;;;;4965291;28;19957;-61
2022/07/27 04:03:52;;;;;;;;;;;12.50;99.90;;;;;;4963808;28;19910;-62
2022/07/27 04:06:18;;;;;;;;;;;12.30;99.90;;;;;;4968813;28;20307;-62
2022/07/27 04:08:44;;;;;;;;;;;12.40;99.90;;;;;;4960855;28;19914;-62
2022/07/27 04:11:09;;;;;;;;;;;12.50;99.90;;;;;;4961931;28;19915;-62
2022/07/27 04:13:35;;;;;;;;;;;12.50;99.90;;;;;;4957312;28;19936;-62
2022/07/27 04:16:00;;;;;;;;;;;12.60;99.90;;;;;;4960829;28;20286;-62
2022/07/27 04:18:26;;;;;;;;;;;12.60;99.90;;;;;;4962259;28;19910;-67
2022/07/27 04:20:51;;;;;;;;;;;12.50;99.90;;;;;;4955095;28;20292;-62
2022/07/27 04:23:17;;;;;;;;;;;12.60;99.90;;;;;;4958378;28;20287;-62
2022/07/27 04:25:42;;;;;;;;;;;12.50;99.90;;;;;;4959344;28;19957;-61
2022/07/27 04:28:08;;;;;;;;;;;12.60;99.90;;;;;;4960082;28;19992;-61
2022/07/27 04:30:33;;;;;;;;;;;12.80;99.90;;;;;;4937142;28;19914;-61
2022/07/27 04:32:59;;;;;;;;;;;12.70;99.90;;;;;;4961706;28;19914;-62
2022/07/27 04:35:24;;;;;;;;;;;12.80;99.90;;;;;;4957925;28;19910;-61
2022/07/27 04:37:50;;;;;;;;;;;12.90;99.90;;;;;;4940888;28;19915;-61
2022/07/27 04:40:15;;;;;;;;;;;12.90;99.90;;;;;;4963094;28;19917;-61
2022/07/27 04:42:41;;;;;;;;;;;13.00;99.90;;;;;;4962552;28;19925;-62
2022/07/27 04:45:07;;;;;;;;;;;12.90;99.90;;;;;;4957131;28;19907;-61
2022/07/27 04:47:32;;;;;;;;;;;13.00;99.90;;;;;;4959272;28;19918;-61
2022/07/27 04:49:58;;;;;;;;;;;13.10;99.90;;;;;;4943120;28;20251;-61
2022/07/27 04:52:23;;;;;;;;;;;13.10;99.90;;;;;;4963641;28;19992;-61
2022/07/27 04:54:54;;;;;;;;;;;13.10;99.90;;;;;;4963798;28;20336;-62
2022/07/27 04:57:20;;;;;;;;;;;13.10;99.90;;;;;;4960490;28;19970;-62
2022/07/27 04:59:45;;;;;;;;;;;13.00;99.90;;;;;;4963426;28;19918;-62
2022/07/27 05:02:11;;;;;;;;;;;13.00;99.90;;;;;;4965411;28;20333;-62
2022/07/27 05:04:37;;;;;;;;;;;13.00;99.90;;;;;;4963530;28;19914;-62
2022/07/27 05:07:02;;;;;;;;;;;13.20;99.90;;;;;;4947989;28;20410;-61
2022/07/27 05:09:28;;;;;;;;;;;13.30;99.90;;;;;;4945605;28;19948;-61
2022/07/27 05:11:53;;;;;;;;;;;13.40;99.90;;;;;;4958681;28;20045;-62
2022/07/27 05:14:19;;;;;;;;;;;13.40;99.90;;;;;;4957906;28;19956;-62
2022/07/27 05:16:44;;;;;;;;;;;13.50;99.90;;;;;;4954891;28;20386;-61
2022/07/27 05:19:11;;;;;;;;;;;13.70;99.90;;;;;;4961714;28;20294;-62
2022/07/27 05:21:36;;;;;;;;;;;13.70;99.90;;;;;;4963166;28;19997;-62
2022/07/27 05:24:02;;;;;;;;;;;13.80;99.90;;;;;;4946372;28;19925;-61
2022/07/27 05:26:27;;;;;;;;;;;13.80;99.90;;;;;;4945606;29;19919;-61
2022/07/27 05:28:53;;;;;;;;;;;13.80;99.90;;;;;;4958300;28;19912;-62
2022/07/27 05:31:19;;;;;;;;;;;13.80;99.90;;;;;;4965793;28;19914;-62
2022/07/27 05:33:44;;;;;;;;;;;13.90;99.90;;;;;;4966852;28;20284;-62
2022/07/27 05:36:10;;;;;;;;;;;14.00;99.90;;;;;;4962682;28;19917;-61
2022/07/27 05:38:39;;;;;;;;;;;14.00;99.90;;;;;;4953526;28;19914;-61
2022/07/27 05:41:05;;;;;;;;;;;14.00;99.90;;;;;;4960695;28;19918;-61
2022/07/27 05:43:31;;;;;;;;;;;14.10;99.90;;;;;;4963457;28;20001;-61
2022/07/27 05:45:56;;;;;;;;;;;14.10;99.90;;;;;;4958007;28;20008;-61
2022/07/27 05:48:22;;;;;;;;;;;14.20;99.90;;;;;;4956175;28;19917;-61
2022/07/27 05:50:48;;;;;;;;;;;14.20;99.90;;;;;;4959674;28;19910;-61
2022/07/27 05:53:13;;;;;;;;;;;14.20;99.90;;;;;;4957272;28;19910;-61
2022/07/27 05:55:38;;;;;;;;;;;14.30;99.90;;;;;;4956838;28;20246;-61
2022/07/27 05:58:05;;;;;;;;;;;14.40;99.90;;;;;;4955301;28;19977;-61
2022/07/27 06:00:30;;;;;;;;;;;14.40;99.90;;;;;;4955267;28;20005;-60
2022/07/27 06:02:56;;;;;;;;;;;14.40;99.90;;;;;;4957028;28;20005;-61
2022/07/27 06:05:21;;;;;;;;;;;14.50;99.90;;;;;;4954787;28;19915;-61
2022/07/27 06:08:01;;;;;;;;;;;14.50;99.90;;;;;;4942559;28;19917;-61
2022/07/27 06:10:31;;;;;;;;;;;14.60;99.90;;;;;;4966326;28;19910;-61
2022/07/27 06:12:56;;;;;;;;;;;14.60;99.90;;;;;;4961576;28;19911;-61
2022/07/27 06:15:22;;;;;;;;;;;14.80;99.90;;;;;;4960934;28;19910;-61
2022/07/27 06:17:51;;;;;;;;;;;14.80;99.90;;;;;;4949219;28;19910;-61
2022/07/27 06:20:17;;;;;;;;;;;14.80;99.90;;;;;;4958944;28;19984;-61
2022/07/27 06:22:52;;;;;;;;;;;15.00;99.90;;;;;;4965518;28;19917;-61
2022/07/27 06:25:18;;;;;;;;;;;15.00;99.90;;;;;;4962611;28;19921;-61
2022/07/27 06:27:44;;;;;;;;;;;15.10;99.90;;;;;;4960335;28;20009;-60
2022/07/27 06:30:10;;;;;;;;;;;15.20;99.90;;;;;;4962671;28;19921;-60
2022/07/27 06:32:36;;;;;;;;;;;15.00;99.90;;;;;;4962558;28;20160;-61
2022/07/27 06:35:02;;;;;;;;;;;15.00;99.90;;;;;;4964018;28;20325;-61
2022/07/27 06:37:29;;;;;;;;;;;15.10;99.90;;;;;;4962586;28;19910;-61
2022/07/27 06:39:56;;;;;;;;;;;15.30;99.90;;;;;;4963663;28;19914;-60
2022/07/27 06:42:21;;;;;;;;;;;15.50;99.90;;;;;;4968173;28;20131;-61
2022/07/27 06:44:47;;;;;;;;;;;15.70;99.90;;;;;;4965768;28;19939;-61
2022/07/27 06:47:12;;;;;;;;;;;15.70;99.90;;;;;;4964432;28;20286;-60
2022/07/27 06:49:38;;;;;;;;;;;16.00;99.90;;;;;;4963298;28;19910;-61
2022/07/27 06:52:03;;;;;;;;;;;16.10;99.90;;;;;;4951796;28;19906;-61
2022/07/27 06:54:29;;;;;;;;;;;16.10;99.90;;;;;;4964510;28;20449;-61
2022/07/27 06:56:54;;;;;;;;;;;16.10;99.90;;;;;;4946768;28;19996;-61
2022/07/27 06:59:20;;;;;;;;;;;16.10;99.90;;;;;;4967530;28;19914;-61
2022/07/27 07:01:45;;;;;;;;;;;16.20;99.90;;;;;;4964995;28;20027;-61
2022/07/27 07:04:11;;;;;;;;;;;16.40;99.90;;;;;;4963053;28;19918;-61
2022/07/27 07:06:37;;;;;;;;;;;16.40;99.90;;;;;;4963382;28;20341;-61
2022/07/27 07:09:02;;;;;;;;;;;16.30;99.90;;;;;;4961081;28;20389;-61
2022/07/27 07:11:28;;;;;;;;;;;16.40;99.90;;;;;;4966325;28;19917;-61
2022/07/27 07:13:54;;;;;;;;;;;16.60;99.90;;;;;;4965044;28;20390;-61
2022/07/27 07:16:19;;;;;;;;;;;16.80;99.90;;;;;;4965532;28;19933;-61
2022/07/27 07:18:45;;;;;;;;;;;17.00;99.90;;;;;;4964216;28;20282;-61
2022/07/27 07:21:10;;;;;;;;;;;17.00;99.90;;;;;;4959612;28;19910;-61
2022/07/27 07:23:36;;;;;;;;;;;17.00;99.90;;;;;;4962447;28;20482;-61
2022/07/27 07:26:01;;;;;;;;;;;17.20;99.90;;;;;;4962604;28;19918;-61
2022/07/27 07:28:27;;;;;;;;;;;17.50;99.90;;;;;;4960081;28;19956;-61
2022/07/27 07:30:52;;;;;;;;;;;17.50;99.90;;;;;;4965895;28;20433;-61
2022/07/27 07:33:18;;;;;;;;;;;17.70;99.90;;;;;;4964106;28;19917;-61
2022/07/27 07:35:43;;;;;;;;;;;18.20;99.90;;;;;;4961963;28;20366;-61
2022/07/27 07:38:09;;;;;;;;;;;18.00;99.90;;;;;;4964476;28;19936;-61
2022/07/27 07:40:35;;;;;;;;;;;17.50;99.90;;;;;;4962939;28;20313;-61
2022/07/27 07:43:02;;;;;;;;;;;17.20;99.90;;;;;;4963041;28;19916;-61
2022/07/27 07:45:28;;;;;;;;;;;17.20;99.90;;;;;;4960567;28;19914;-61
2022/07/27 07:47:54;;;;;;;;;;;17.20;99.90;;;;;;4961759;28;19917;-61
2022/07/27 07:50:20;;;;;;;;;;;17.50;99.90;;;;;;4961445;28;19910;-61
2022/07/27 07:52:49;;;;;;;;;;;17.70;99.90;;;;;;4962097;28;20474;-61
2022/07/27 07:55:18;;;;;;;;;;;17.90;99.90;;;;;;4943095;28;19917;-61
2022/07/27 07:57:43;;;;;;;;;;;17.80;99.90;;;;;;4961459;28;19997;-61
2022/07/27 08:00:09;;;;;;;;;;;17.70;99.90;;;;;;4965897;28;19918;-61
2022/07/27 08:02:41;;;;;;;;;;;18.00;99.90;;;;;;4958492;28;19914;-61
2022/07/27 08:05:07;;;;;;;;;;;18.20;99.90;;;;;;4964124;28;19910;-61
2022/07/27 08:07:32;;;;;;;;;;;18.40;99.90;;;;;;4961460;28;20260;-62
2022/07/27 08:09:58;;;;;;;;;;;18.00;99.90;;;;;;4962646;28;19910;-61
2022/07/27 08:12:23;;;;;;;;;;;17.70;99.90;;;;;;4948383;28;19910;-62
2022/07/27 08:14:49;;;;;;;;;;;17.40;99.90;;;;;;4944368;28;19910;-61
2022/07/27 08:17:15;;;;;;;;;;;17.30;99.90;;;;;;4960484;28;19914;-61
2022/07/27 08:19:41;;;;;;;;;;;17.30;99.90;;;;;;4947226;28;19921;-61
2022/07/27 08:22:06;;;;;;;;;;;17.90;99.90;;;;;;4962293;28;19910;-61
2022/07/27 08:24:32;;;;;;;;;;;18.60;99.90;;;;;;4960160;28;20017;-61
2022/07/27 08:26:57;;;;;;;;;;;19.20;98.80;;;;;;4961152;28;19913;-61
2022/07/27 08:29:23;;;;;;;;;;;19.70;98.20;;;;;;4959961;28;19913;-61
2022/07/27 08:31:49;;;;;;;;;;;20.30;97.20;;;;;;4965746;28;19914;-61
2022/07/27 08:34:15;;;;;;;;;;;20.70;96.20;;;;;;4961074;28;19916;-61
2022/07/27 08:36:40;;;;;;;;;;;19.80;97.50;;;;;;4960695;28;20354;-61
2022/07/27 08:39:07;;;;;;;;;;;19.50;97.50;;;;;;4963821;28;19969;-61
2022/07/27 08:41:36;;;;;;;;;;;19.10;97.20;;;;;;4969143;28;19965;-61
2022/07/27 08:44:02;;;;;;;;;;;19.00;98.00;;;;;;4971942;28;19918;-62
2022/07/27 08:46:29;;;;;;;;;;;19.10;97.00;;;;;;4956161;28;19910;-61
2022/07/27 08:48:55;;;;;;;;;;;19.20;96.80;;;;;;4965483;28;20358;-62
2022/07/27 08:51:22;;;;;;;;;;;18.90;97.40;;;;;;4967016;28;20020;-62
2022/07/27 08:53:49;;;;;;;;;;;18.70;98.10;;;;;;4971965;28;19933;-61
2022/07/27 08:56:14;;;;;;;;;;;18.40;99.30;;;;;;4962401;28;19929;-61
2022/07/27 08:58:40;;;;;;;;;;;18.40;99.90;;;;;;4952081;28;20215;-61
2022/07/27 09:01:06;;;;;;;;;;;18.60;99.90;;;;;;4966453;28;19917;-61
2022/07/27 09:03:31;;;;;;;;;;;19.10;99.90;;;;;;4966301;28;20009;-61
2022/07/27 09:05:57;;;;;;;;;;;20.50;96.80;;;;;;4969933;28;19964;-61
2022/07/27 09:08:23;;;;;;;;;;;21.30;93.90;;;;;;4963921;28;19978;-61
2022/07/27 09:10:49;;;;;;;;;;;21.40;93.10;;;;;;4970732;28;20466;-61
2022/07/27 09:13:36;;;;;;;;;;;20.50;93.30;;;;;;4963735;28;19914;-61
2022/07/27 09:16:05;;;;;;;;;;;20.10;95.10;;;;;;4964926;28;19914;-61
2022/07/27 09:18:36;;;;;;;;;;;19.50;93.50;;;;;;4961540;28;19918;-62
2022/07/27 09:21:15;;;;;;;;;;;19.40;94.50;;;;;;4965542;28;20392;-61
2022/07/27 09:23:48;;;;;;;;;;;19.30;94.40;;;;;;4966915;28;20406;-61
2022/07/27 09:26:13;;;;;;;;;;;19.40;93.10;;;;;;4963257;28;19925;-61
2022/07/27 09:28:39;;;;;;;;;;;19.90;92.70;;;;;;4952593;28;19910;-62
2022/07/27 09:31:06;;;;;;;;;;;20.70;92.10;;;;;;4969691;28;19948;-61
2022/07/27 09:33:39;;;;;;;;;;;21.70;91.00;;;;;;4964791;28;19914;-61
2022/07/27 09:36:04;;;;;;;;;;;22.30;84.00;;;;;;4963099;28;20377;-61
2022/07/27 09:38:30;;;;;;;;;;;21.90;86.00;;;;;;4960732;28;19910;-62
2022/07/27 09:40:59;;;;;;;;;;;22.10;87.00;;;;;;4960917;28;19914;-62
2022/07/27 09:43:25;;;;;;;;;;;21.60;84.70;;;;;;4958813;28;20333;-61
2022/07/27 09:45:52;;;;;;;;;;;21.00;87.40;;;;;;4963536;28;20009;-61
2022/07/27 09:48:19;;;;;;;;;;;20.40;89.80;;;;;;4962215;28;20009;-62
2022/07/27 09:50:46;;;;;;;;;;;20.20;91.20;;;;;;4957541;28;20033;-62
2022/07/27 09:53:19;;;;;;;;;;;20.20;91.20;;;;;;4960011;28;19914;-61
2022/07/27 09:55:45;;;;;;;;;;;20.20;91.40;;;;;;4959936;28;19917;-61
2022/07/27 09:58:11;;;;;;;;;;;20.20;91.50;;;;;;4964027;28;19910;-62
2022/07/27 10:00:37;;;;;;;;;;;19.80;91.40;;;;;;4965485;28;19917;-61
2022/07/27 10:03:03;;;;;;;;;;;19.40;91.90;;;;;;4964088;28;19917;-61
2022/07/27 10:05:28;;;;;;;;;;;19.50;92.60;;;;;;4973539;28;19914;-61
2022/07/27 10:07:54;;;;;;;;;;;19.60;92.80;;;;;;4966678;28;20068;-62
2022/07/27 10:10:20;;;;;;;;;;;19.80;92.90;;;;;;4967603;28;19910;-62
2022/07/27 10:12:47;;;;;;;;;;;20.70;92.10;;;;;;4964406;28;20385;-61
2022/07/27 10:15:12;;;;;;;;;;;21.50;88.30;;;;;;4967198;28;19968;-62
2022/07/27 10:17:40;;;;;;;;;;;22.10;87.50;;;;;;4965805;28;19914;-62
2022/07/27 10:20:09;;;;;;;;;;;22.80;85.60;;;;;;4967995;28;20310;-61
2022/07/27 10:22:54;;;;;;;;;;;23.00;84.50;;;;;;4939486;29;19969;-62
2022/07/27 10:25:21;;;;;;;;;;;23.40;86.30;;;;;;4927920;29;20319;-62
2022/07/27 10:27:48;;;;;;;;;;;22.90;88.00;;;;;;4931532;29;19929;-61
2022/07/27 10:30:16;;;;;;;;;;;22.10;88.30;;;;;;4925372;29;20363;-61
2022/07/27 10:32:43;;;;;;;;;;;21.20;90.10;;;;;;4927945;29;19907;-62
2022/07/27 10:35:29;;;;;;;;;;;21.00;91.10;;;;;;4922608;29;19911;-61
2022/07/27 10:38:11;;;;;;;;;;;21.10;90.50;;;;;;4921675;29;19942;-61
2022/07/27 10:40:37;;;;;;;;;;;21.20;89.50;;;;;;4921623;29;20391;-61
2022/07/27 10:43:08;;;;;;;;;;;21.10;87.90;;;;;;4925004;29;19911;-61
2022/07/27 10:45:37;;;;;;;;;;;21.40;87.70;;;;;;4923572;29;19906;-61
2022/07/27 10:48:03;;;;;;;;;;;21.40;87.00;;;;;;4922237;29;19906;-62
2022/07/27 10:50:30;;;;;;;;;;;21.80;85.80;;;;;;4926973;29;20450;-62
2022/07/27 10:52:57;;;;;;;;;;;23.20;82.80;;;;;;4925825;29;19958;-62
2022/07/27 10:55:29;;;;;;;;;;;24.40;79.00;;;;;;4917863;29;19919;-61
2022/07/27 10:58:14;;;;;;;;;;;23.70;78.40;;;;;;4921634;29;20362;-62
2022/07/27 11:00:46;;;;;;;;;;;24.20;80.80;;;;;;4923607;29;19913;-62
2022/07/27 11:03:19;;;;;;;;;;;23.80;79.20;;;;;;4922652;29;20034;-61
2022/07/27 11:05:52;;;;;;;;;;;23.40;82.10;;;;;;4922767;29;19915;-61
2022/07/27 11:08:23;;;;;;;;;;;22.80;81.30;;;;;;4928688;29;19990;-61
2022/07/27 11:10:48;;;;;;;;;;;22.60;81.90;;;;;;4928262;29;19972;-61
2022/07/27 11:13:16;;;;;;;;;;;22.40;81.80;;;;;;4926040;29;20035;-61
2022/07/27 11:15:49;;;;;;;;;;;22.20;81.50;;;;;;4927645;29;20404;-62
2022/07/27 11:18:14;;;;;;;;;;;22.30;81.40;;;;;;4922056;29;19950;-62
2022/07/27 11:20:40;;;;;;;;;;;22.50;82.50;;;;;;4922948;29;19950;-61
2022/07/27 11:23:18;;;;;;;;;;;22.00;82.70;;;;;;4940509;28;19918;-61
2022/07/27 11:25:57;;;;;;;;;;;21.50;82.20;;;;;;4950456;28;19920;-61
2022/07/27 11:28:29;;;;;;;;;;;21.20;82.70;;;;;;4950100;28;19921;-61
2022/07/27 11:30:56;;;;;;;;;;;21.60;84.70;;;;;;4964426;28;19906;-61
2022/07/27 11:33:21;;;;;;;;;;;22.00;81.90;;;;;;4958562;28;20413;-61
2022/07/27 11:35:54;;;;;;;;;;;23.20;78.40;;;;;;4964801;28;19910;-62
2022/07/27 11:38:19;;;;;;;;;;;24.70;78.40;;;;;;4959334;28;19917;-61
2022/07/27 11:40:47;;;;;;;;;;;25.00;73.90;;;;;;4962820;28;20282;-62
2022/07/27 11:43:12;;;;;;;;;;;24.90;73.00;;;;;;4957342;28;20583;-61
2022/07/27 11:45:41;;;;;;;;;;;24.20;74.20;;;;;;4963964;28;20009;-61
2022/07/27 11:48:09;;;;;;;;;;;23.10;76.50;;;;;;4966175;28;19910;-61
2022/07/27 11:50:35;;;;;;;;;;;22.50;76.00;;;;;;4949653;28;19943;-61
2022/07/27 11:53:01;;;;;;;;;;;21.80;78.50;;;;;;4945379;28;20282;-61
2022/07/27 11:55:26;;;;;;;;;;;21.40;80.20;;;;;;4962786;28;20366;-61
2022/07/27 11:57:52;;;;;;;;;;;21.10;80.50;;;;;;4956506;28;19925;-62
2022/07/27 12:00:17;;;;;;;;;;;20.90;81.80;;;;;;4963005;28;19974;-61
2022/07/27 12:02:49;;;;;;;;;;;21.20;79.90;;;;;;4964019;28;20240;-61
2022/07/27 12:05:15;;;;;;;;;;;21.40;81.40;;;;;;4947370;28;19956;-61
2022/07/27 12:07:41;;;;;;;;;;;21.20;80.70;;;;;;4958472;28;20339;-61
2022/07/27 12:10:07;;;;;;;;;;;21.50;82.20;;;;;;4944364;29;20425;-61
2022/07/27 12:12:33;;;;;;;;;;;21.70;81.00;;;;;;4966065;28;19914;-61
2022/07/27 12:15:01;;;;;;;;;;;21.80;79.40;;;;;;4968257;28;19916;-61
2022/07/27 12:17:31;;;;;;;;;;;22.00;80.00;;;;;;4960273;28;19935;-61
2022/07/27 12:20:15;;;;;;;;;;;22.40;81.00;;;;;;4963433;28;20381;-62
2022/07/27 12:22:42;;;;;;;;;;;23.70;77.30;;;;;;4966200;28;19914;-62
2022/07/27 12:25:16;;;;;;;;;;;25.10;71.70;;;;;;4967336;28;19953;-62
2022/07/27 12:28:12;;;;;;;;;;;25.10;71.20;;;;;;4963479;28;19921;-62
2022/07/27 12:30:37;;;;;;;;;;;24.80;72.50;;;;;;4949404;28;19910;-62
2022/07/27 12:33:05;;;;;;;;;;;23.40;73.40;;;;;;4965537;28;19910;-62
2022/07/27 12:35:32;;;;;;;;;;;22.90;74.30;;;;;;4963994;28;19910;-62
2022/07/27 12:38:05;;;;;;;;;;;22.60;77.10;;;;;;4963282;28;19913;-62
2022/07/27 12:40:31;;;;;;;;;;;21.90;77.50;;;;;;4970255;28;19969;-62
2022/07/27 12:43:01;;;;;;;;;;;21.70;81.20;;;;;;4965071;28;19910;-63
2022/07/27 12:45:37;;;;;;;;;;;22.10;78.40;;;;;;4963325;28;19918;-62
2022/07/27 12:48:07;;;;;;;;;;;22.80;77.70;;;;;;4972281;28;19921;-62
2022/07/27 12:50:32;;;;;;;;;;;24.60;75.00;;;;;;4963876;28;19937;-62
2022/07/27 12:52:58;;;;;;;;;;;26.60;73.60;;;;;;4950207;29;19919;-62
2022/07/27 12:55:23;;;;;;;;;;;27.80;69.00;;;;;;4962377;28;19914;-62
2022/07/27 12:57:49;;;;;;;;;;;26.00;69.30;;;;;;4967266;28;19917;-62
2022/07/27 13:00:16;;;;;;;;;;;24.50;70.40;;;;;;4959243;28;19914;-62
2022/07/27 13:02:42;;;;;;;;;;;23.70;71.90;;;;;;4962068;28;19949;-62
2022/07/27 13:05:09;;;;;;;;;;;23.40;74.90;;;;;;4973189;28;19910;-62
2022/07/27 13:07:36;;;;;;;;;;;23.20;73.40;;;;;;4963893;28;19945;-62
2022/07/27 13:10:02;;;;;;;;;;;23.30;73.80;;;;;;4970394;28;20022;-62
2022/07/27 13:12:28;;;;;;;;;;;22.80;75.60;;;;;;4965831;28;20714;-62
2022/07/27 13:14:53;;;;;;;;;;;22.20;78.40;;;;;;4972393;28;19972;-62
2022/07/27 13:17:19;;;;;;;;;;;21.80;77.80;;;;;;4965902;28;19924;-62
2022/07/27 13:19:45;;;;;;;;;;;21.90;77.60;;;;;;4964429;28;19941;-62
2022/07/27 13:22:10;;;;;;;;;;;22.30;76.60;;;;;;4966064;28;19953;-62
2022/07/27 13:24:36;;;;;;;;;;;22.80;75.00;;;;;;4953676;28;20350;-62
2022/07/27 13:27:01;;;;;;;;;;;24.40;74.90;;;;;;4958428;28;19993;-62
2022/07/27 13:29:27;;;;;;;;;;;26.10;70.20;;;;;;4962254;28;19906;-62
2022/07/27 13:31:52;;;;;;;;;;;26.80;66.00;;;;;;4961885;28;19906;-62
2022/07/27 13:34:18;;;;;;;;;;;27.50;67.20;;;;;;4962201;28;19989;-62
2022/07/27 13:36:44;;;;;;;;;;;27.30;66.80;;;;;;4962202;28;19921;-62
2022/07/27 13:39:09;;;;;;;;;;;28.00;64.80;;;;;;4962284;28;19914;-62
2022/07/27 13:41:35;;;;;;;;;;;27.90;64.80;;;;;;4960422;28;19946;-62
2022/07/27 13:44:02;;;;;;;;;;;26.20;67.40;;;;;;4961782;28;19910;-62
2022/07/27 13:46:27;;;;;;;;;;;25.00;68.70;;;;;;4962819;28;19985;-62
2022/07/27 13:48:53;;;;;;;;;;;24.20;71.10;;;;;;4958040;28;19906;-62
2022/07/27 13:51:18;;;;;;;;;;;23.20;72.80;;;;;;4964659;28;20267;-62
2022/07/27 13:53:44;;;;;;;;;;;23.20;73.50;;;;;;4966729;28;19918;-63
2022/07/27 13:56:09;;;;;;;;;;;23.20;71.10;;;;;;4966015;28;20004;-62
2022/07/27 13:58:39;;;;;;;;;;;23.40;73.30;;;;;;4963567;28;20382;-62
2022/07/27 14:01:05;;;;;;;;;;;23.90;73.30;;;;;;4958520;28;19910;-62
2022/07/27 14:03:31;;;;;;;;;;;25.10;69.90;;;;;;4963346;28;19958;-63
2022/07/27 14:05:56;;;;;;;;;;;26.40;66.90;;;;;;4963260;28;19914;-62
2022/07/27 14:08:22;;;;;;;;;;;26.70;66.60;;;;;;4966782;28;19933;-62
2022/07/27 14:10:47;;;;;;;;;;;27.30;65.90;;;;;;4961592;28;19964;-62
2022/07/27 14:13:14;;;;;;;;;;;28.70;62.90;;;;;;4964987;28;19906;-62
2022/07/27 14:15:41;;;;;;;;;;;29.40;62.10;;;;;;4968756;28;19925;-62